Time;durP1;ratioP1;P1;durP2;ratioP2;P2;SDS_P1;SDS_P2;PMS_P1;PMS_P2;Temp;Humidity;BMP_temperature;BMP_pressure;BME280_temperature;BME280_humidity;BME280_pressure;Samples;Min_cycle;Max_cycle;Signal;HPM_P1;HPM_P2
2023/08/17 00:02:20;;;;;;;10.98;7.55;;;;;;;-143.21;65.67;71233.47;5057237;28;20205;-77
2023/08/17 00:04:47;;;;;;;12.73;7.75;;;;;;;-143.21;65.33;71235.44;5066420;28;20283;-77
2023/08/17 00:07:14;;;;;;;13.23;7.35;;;;;;;-143.21;65.31;71237.44;5065681;28;20201;-75
2023/08/17 00:09:41;;;;;;;12.77;7.45;;;;;;;-143.21;65.83;71243.38;5062854;28;20696;-76
2023/08/17 00:12:08;;;;;;;12.43;7.25;;;;;;;-143.21;66.07;71253.28;5063126;28;20213;-76
2023/08/17 00:14:34;;;;;;;12.05;7.18;;;;;;;-143.21;65.81;71245.38;5058856;28;20246;-76
2023/08/17 00:17:03;;;;;;;16.13;7.45;;;;;;;-143.21;66.23;71261.22;5065599;28;20230;-76
2023/08/17 00:19:29;;;;;;;14.98;8.18;;;;;;;-143.21;66.43;71265.19;5059540;28;20201;-76
2023/08/17 00:21:56;;;;;;;12.35;6.95;;;;;;;-143.21;66.08;71257.25;5061647;28;20213;-76
2023/08/17 00:24:23;;;;;;;12.82;7.20;;;;;;;-143.21;66.21;71265.19;5062806;28;20198;-75
2023/08/17 00:26:50;;;;;;;15.07;7.20;;;;;;;-143.21;66.06;71271.13;5065375;28;20258;-76
2023/08/17 00:29:17;;;;;;;9.57;7.28;;;;;;;-143.21;65.97;71263.22;5059352;28;20212;-76
2023/08/17 00:31:43;;;;;;;11.10;7.47;;;;;;;-143.21;66.02;71265.19;5067467;28;20197;-76
2023/08/17 00:34:12;;;;;;;14.57;7.15;;;;;;;-143.21;65.72;71265.19;5069219;28;20209;-76
2023/08/17 00:36:38;;;;;;;8.43;7.07;;;;;;;-143.21;65.38;71269.16;5069072;28;20218;-75
2023/08/17 00:39:06;;;;;;;15.05;6.82;;;;;;;-143.21;65.49;71273.13;5066922;28;20220;-75
2023/08/17 00:41:32;;;;;;;12.77;6.93;;;;;;;-143.21;65.46;71275.09;5061605;28;20781;-75
2023/08/17 00:44:00;;;;;;;14.32;7.30;;;;;;;-143.21;65.54;71273.13;5068300;28;20215;-74
2023/08/17 00:46:27;;;;;;;12.57;6.82;;;;;;;-143.21;65.41;71279.06;5066142;28;20197;-75
2023/08/17 00:48:55;;;;;;;12.05;6.47;;;;;;;-143.21;65.09;71273.13;5067888;28;20205;-75
2023/08/17 00:51:25;;;;;;;14.13;6.68;;;;;;;-143.21;64.87;71279.06;5064233;28;20254;-77
2023/08/17 00:53:52;;;;;;;10.75;6.03;;;;;;;-143.21;64.77;71283.03;5067785;28;20248;-75
2023/08/17 00:56:19;;;;;;;10.27;6.80;;;;;;;-143.21;64.83;71279.06;5060537;28;20289;-75
2023/08/17 00:58:46;;;;;;;15.07;6.35;;;;;;;-143.21;64.50;71279.06;5067246;28;20205;-75
2023/08/17 01:01:12;;;;;;;8.95;6.35;;;;;;;-143.21;64.63;71275.09;5068228;28;20229;-75
2023/08/17 01:03:41;;;;;;;11.50;6.35;;;;;;;-143.21;64.51;71283.03;5065019;28;20205;-75
2023/08/17 01:06:09;;;;;;;9.85;5.78;;;;;;;-143.21;64.69;71285.03;5060670;28;20209;-76
2023/08/17 01:08:38;;;;;;;13.18;5.57;;;;;;;-143.21;63.94;71283.03;5065194;28;20210;-75
2023/08/17 01:11:14;;;;;;;11.75;5.25;;;;;;;-143.21;63.47;71279.06;5064980;28;20217;-74
2023/08/17 01:13:48;;;;;;;13.57;5.22;;;;;;;-143.21;63.36;71273.13;5066075;28;20676;-75
2023/08/17 01:16:22;;;;;;;10.73;5.78;;;;;;;-143.21;63.30;71285.03;5065214;28;20209;-75
2023/08/17 01:18:51;;;;;;;7.68;5.55;;;;;;;-143.21;63.43;71294.94;5064606;28;20221;-75
2023/08/17 01:21:19;;;;;;;10.02;5.85;;;;;;;-143.21;63.34;71290.97;5064267;28;20733;-75
2023/08/17 01:23:49;;;;;;;8.07;5.50;;;;;;;-143.21;63.11;71288.97;5061401;28;20201;-75
2023/08/17 01:26:16;;;;;;;10.57;5.43;;;;;;;-143.21;63.23;71296.91;5065055;28;20212;-75
2023/08/17 01:28:44;;;;;;;11.35;5.45;;;;;;;-143.21;63.49;71300.88;5062091;28;20205;-75
2023/08/17 01:31:15;;;;;;;8.18;5.70;;;;;;;-143.21;63.25;71308.81;5066424;28;20707;-75
2023/08/17 01:33:52;;;;;;;9.88;5.32;;;;;;;-143.21;63.30;71314.75;5065719;28;20217;-75
2023/08/17 01:36:23;;;;;;;9.38;4.72;;;;;;;-143.21;63.04;71308.81;5065258;28;20616;-75
2023/08/17 01:38:54;;;;;;;8.75;5.35;;;;;;;-143.21;63.12;71312.78;5067513;28;20283;-75
2023/08/17 01:41:23;;;;;;;10.02;5.18;;;;;;;-143.21;63.17;71308.81;5065237;28;20204;-75
2023/08/17 01:43:51;;;;;;;9.00;5.40;;;;;;;-143.21;63.22;71318.72;5059803;28;20205;-75
2023/08/17 01:46:19;;;;;;;8.88;5.07;;;;;;;-143.21;62.69;71306.81;5060824;28;20582;-76
2023/08/17 01:48:46;;;;;;;7.65;5.38;;;;;;;-143.21;62.80;71300.88;5063992;28;20691;-76
2023/08/17 01:51:19;;;;;;;14.30;5.80;;;;;;;-143.21;62.85;71302.84;5064819;28;20217;-76
2023/08/17 01:53:46;;;;;;;9.18;5.53;;;;;;;-143.21;63.05;71302.84;5065195;28;20257;-75
2023/08/17 01:56:15;;;;;;;9.55;5.20;;;;;;;-143.21;62.88;71308.81;5060526;28;20237;-75
2023/08/17 01:58:42;;;;;;;9.80;5.45;;;;;;;-143.21;63.23;71308.81;5061528;28;20229;-75
2023/08/17 02:01:09;;;;;;;13.85;5.60;;;;;;;-143.21;63.06;71316.75;5064497;28;20205;-75
2023/08/17 02:03:36;;;;;;;10.60;5.68;;;;;;;-143.21;63.15;71314.75;5064178;28;20279;-75
2023/08/17 02:06:03;;;;;;;11.00;5.45;;;;;;;-143.21;63.18;71324.66;5063967;28;20209;-75
2023/08/17 02:08:31;;;;;;;9.18;5.10;;;;;;;-143.21;63.21;71322.69;5067986;28;20201;-75
2023/08/17 02:10:58;;;;;;;12.73;5.38;;;;;;;-143.21;63.46;71328.63;5061795;28;20641;-75
2023/08/17 02:13:27;;;;;;;12.48;5.45;;;;;;;-143.21;63.49;71332.59;5064877;28;20205;-75
2023/08/17 02:15:54;;;;;;;12.57;5.40;;;;;;;-143.21;63.48;71338.53;5066066;28;20260;-82
2023/08/17 02:18:20;;;;;;;11.10;5.35;;;;;;;-143.21;63.56;71338.53;5065534;28;20225;-82
2023/08/17 02:20:47;;;;;;;12.00;5.03;;;;;;;-143.21;62.99;71340.53;5062132;28;20201;-81
2023/08/17 02:23:14;;;;;;;10.15;5.30;;;;;;;-143.21;62.38;71322.69;5061575;28;20205;-83
2023/08/17 02:25:41;;;;;;;12.43;5.55;;;;;;;-143.21;62.00;71326.66;5064764;28;20197;-82
2023/08/17 02:28:08;;;;;;;10.55;5.28;;;;;;;-143.21;62.06;71320.69;5064753;28;20213;-81
2023/08/17 02:30:36;;;;;;;10.05;5.10;;;;;;;-143.21;62.28;71328.63;5061589;28;20206;-81
2023/08/17 02:33:03;;;;;;;12.52;5.10;;;;;;;-143.21;62.17;71332.59;5064078;28;20220;-82
2023/08/17 02:35:30;;;;;;;13.07;5.72;;;;;;;-143.21;62.09;71334.59;5060228;28;20228;-81
2023/08/17 02:37:57;;;;;;;16.30;5.90;;;;;;;-143.21;62.01;71334.59;5065517;28;20454;-82
2023/08/17 02:40:24;;;;;;;13.88;5.40;;;;;;;-143.21;62.26;71336.56;5058770;28;20209;-82
2023/08/17 02:42:51;;;;;;;10.52;5.05;;;;;;;-143.21;61.96;71332.59;5068628;28;20289;-82
2023/08/17 02:45:18;;;;;;;12.07;4.93;;;;;;;-143.21;61.81;71336.56;5066519;28;20208;-81
2023/08/17 02:47:46;;;;;;;6.53;4.70;;;;;;;-143.21;61.97;71338.53;5063956;28;20206;-83
2023/08/17 02:50:13;;;;;;;13.65;4.97;;;;;;;-143.21;61.60;71328.63;5058074;28;20672;-82
2023/08/17 02:52:40;;;;;;;10.88;5.50;;;;;;;-143.21;61.45;71328.63;5054699;28;20201;-83
2023/08/17 02:55:07;;;;;;;9.40;4.85;;;;;;;-143.21;61.42;71332.59;5061812;28;20245;-82
2023/08/17 02:57:34;;;;;;;10.07;4.65;;;;;;;-143.21;61.43;71344.50;5068689;28;20617;-82
2023/08/17 03:00:01;;;;;;;9.98;5.40;;;;;;;-143.21;61.62;71348.47;5065013;28;20201;-82
2023/08/17 03:02:28;;;;;;;5.47;4.60;;;;;;;-143.21;61.49;71340.53;5061631;28;20212;-81
2023/08/17 03:04:56;;;;;;;7.68;4.65;;;;;;;-143.21;61.73;71342.50;5058583;28;20197;-81
2023/08/17 03:07:23;;;;;;;9.40;5.25;;;;;;;-143.21;61.88;71348.47;5063660;28;20616;-82
2023/08/17 03:09:49;;;;;;;11.70;5.30;;;;;;;-143.21;62.17;71352.44;5060332;28;20583;-81
2023/08/17 03:12:16;;;;;;;10.57;5.15;;;;;;;-143.21;62.38;71360.34;5060469;28;20224;-81
2023/08/17 03:14:43;;;;;;;9.27;5.18;;;;;;;-143.21;62.67;71362.34;5058659;28;20206;-81
2023/08/17 03:17:10;;;;;;;10.82;5.70;;;;;;;-143.21;62.99;71374.22;5057425;28;20205;-81
2023/08/17 03:19:37;;;;;;;8.63;5.70;;;;;;;-143.21;63.46;71384.16;5061672;28;20232;-81
2023/08/17 03:22:05;;;;;;;10.75;5.43;;;;;;;-143.21;63.64;71398.03;5053449;28;20214;-81
2023/08/17 03:24:32;;;;;;;8.40;5.50;;;;;;;-143.21;63.67;71396.03;5057495;28;20218;-81
2023/08/17 03:26:58;;;;;;;10.20;5.07;;;;;;;-143.21;64.01;71407.94;5060582;28;20197;-81
2023/08/17 03:29:26;;;;;;;14.40;5.57;;;;;;;-143.21;64.14;71419.84;5059279;28;20221;-82
2023/08/17 03:31:53;;;;;;;11.88;5.90;;;;;;;-143.21;64.46;71429.75;5059343;28;20213;-82
2023/08/17 03:34:20;;;;;;;10.02;5.93;;;;;;;-143.21;64.68;71435.69;5054241;28;20212;-81
2023/08/17 03:36:47;;;;;;;9.18;5.95;;;;;;;-143.21;64.98;71443.63;5066729;28;20213;-82
2023/08/17 03:39:15;;;;;;;9.00;5.35;;;;;;;-143.21;64.54;71451.56;5057216;28;20225;-82
2023/08/17 03:41:43;;;;;;;10.48;5.30;;;;;;;-143.21;64.63;71447.59;5060485;28;20668;-81
2023/08/17 03:44:09;;;;;;;10.85;5.18;;;;;;;-143.21;64.38;71443.63;5062840;28;20201;-81
2023/08/17 03:46:36;;;;;;;9.07;5.63;;;;;;;-143.21;63.98;71433.72;5061360;28;20839;-81
2023/08/17 03:49:03;;;;;;;9.60;5.68;;;;;;;-143.21;63.88;71435.69;5062674;28;20209;-81
2023/08/17 03:51:30;;;;;;;8.18;5.75;;;;;;;-143.21;63.90;71437.69;5065712;28;20205;-81
2023/08/17 03:53:56;;;;;;;9.05;4.78;;;;;;;-143.21;64.10;71439.66;5063632;28;20447;-81
2023/08/17 03:56:25;;;;;;;11.13;5.50;;;;;;;-143.21;63.61;71439.66;5064833;28;20201;-80
2023/08/17 03:58:51;;;;;;;14.90;5.22;;;;;;;-143.21;63.69;71447.59;5065415;28;20218;-81
2023/08/17 04:01:18;;;;;;;13.48;5.20;;;;;;;-143.21;63.56;71443.63;5058297;28;20204;-81
2023/08/17 04:03:45;;;;;;;9.02;4.80;;;;;;;-143.21;63.25;71437.69;5066597;28;20208;-81
2023/08/17 04:06:12;;;;;;;12.75;5.20;;;;;;;-143.21;63.09;71431.72;5063461;28;20197;-81
2023/08/17 04:08:39;;;;;;;9.48;5.32;;;;;;;-143.21;63.29;71435.69;5071156;28;20205;-82
2023/08/17 04:11:06;;;;;;;14.95;6.15;;;;;;;-143.21;62.64;71427.75;5064755;28;20214;-82
2023/08/17 04:13:34;;;;;;;11.65;5.50;;;;;;;-143.21;62.25;71429.75;5057504;28;20640;-82
2023/08/17 04:16:01;;;;;;;13.75;5.50;;;;;;;-143.21;61.92;71429.75;5064280;28;20209;-82
2023/08/17 04:18:28;;;;;;;9.15;5.50;;;;;;;-143.21;61.83;71427.75;5058708;28;20222;-81
2023/08/17 04:20:55;;;;;;;14.07;5.95;;;;;;;-143.21;61.96;71439.66;5068151;28;20271;-81
2023/08/17 04:23:21;;;;;;;14.73;5.13;;;;;;;-143.21;62.09;71445.59;5062189;28;20202;-81
2023/08/17 04:25:48;;;;;;;10.88;5.50;;;;;;;-143.21;62.29;71447.59;5063423;28;20583;-81
2023/08/17 04:28:18;;;;;;;11.60;5.78;;;;;;;-143.21;62.67;71443.63;5065324;28;20288;-82
2023/08/17 04:30:46;;;;;;;15.20;5.85;;;;;;;-143.21;63.10;71439.66;5069880;28;20671;-82
2023/08/17 04:33:13;;;;;;;12.30;5.57;;;;;;;-143.21;63.43;71427.75;5064007;28;20209;-81
2023/08/17 04:35:40;;;;;;;16.65;5.88;;;;;;;-143.21;63.19;71413.88;5064750;28;20269;-80
2023/08/17 04:38:07;;;;;;;14.55;6.00;;;;;;;-143.21;62.96;71417.84;5064937;28;20229;-82
2023/08/17 04:40:34;;;;;;;15.27;6.10;;;;;;;-143.21;63.10;71417.84;5062962;28;20213;-80
2023/08/17 04:43:01;;;;;;;10.77;6.35;;;;;;;-143.21;63.25;71433.72;5072360;28;20574;-82
2023/08/17 04:45:28;;;;;;;10.27;6.22;;;;;;;-143.21;63.72;71439.66;5066228;28;20204;-82
2023/08/17 04:47:56;;;;;;;12.20;6.70;;;;;;;-143.21;63.66;71443.63;5066649;28;20201;-82
2023/08/17 04:50:23;;;;;;;16.35;6.95;;;;;;;-143.21;63.90;71447.59;5069212;28;20720;-82
2023/08/17 04:52:50;;;;;;;16.67;7.25;;;;;;;-143.21;63.86;71463.44;5061324;28;20664;-83
2023/08/17 04:55:16;;;;;;;9.48;6.22;;;;;;;-143.21;64.28;71477.34;5070649;28;20237;-82
2023/08/17 04:57:43;;;;;;;13.43;6.22;;;;;;;-143.21;64.52;71471.38;5061212;28;20213;-83
2023/08/17 05:00:12;;;;;;;14.65;6.47;;;;;;;-143.21;64.26;71455.53;5059422;28;20214;-83
2023/08/17 05:02:39;;;;;;;9.52;5.65;;;;;;;-143.21;64.19;71451.56;5058251;28;20232;-84
2023/08/17 05:05:10;;;;;;;8.70;5.90;;;;;;;-143.21;64.64;71461.47;5060334;28;20222;-84
2023/08/17 05:07:37;;;;;;;11.57;5.97;;;;;;;-143.21;63.78;71437.69;5056868;28;20206;-81
2023/08/17 05:10:06;;;;;;;12.43;5.90;;;;;;;-143.21;63.22;71419.84;5059531;28;20240;-80
2023/08/17 05:12:33;;;;;;;19.02;5.72;;;;;;;-143.21;61.91;71407.94;5059289;28;20232;-80
2023/08/17 05:15:01;;;;;;;13.25;6.03;;;;;;;-143.21;62.31;71415.88;5059860;28;20208;-80
2023/08/17 05:17:28;;;;;;;11.50;5.60;;;;;;;-143.21;62.32;71415.88;5063076;28;20293;-79
2023/08/17 05:19:55;;;;;;;12.32;5.78;;;;;;;-143.21;62.44;71431.72;5062572;28;20232;-80
2023/08/17 05:22:24;;;;;;;13.05;6.00;;;;;;;-143.21;62.24;71431.72;5065365;28;20206;-81
2023/08/17 05:24:50;;;;;;;12.48;5.43;;;;;;;-143.21;62.41;71431.72;5059666;28;20197;-80
2023/08/17 05:27:17;;;;;;;12.88;5.35;;;;;;;-143.21;62.38;71433.72;5061238;28;20209;-81
2023/08/17 05:29:44;;;;;;;15.68;6.18;;;;;;;-143.21;62.37;71433.72;5066226;28;20205;-80
2023/08/17 05:32:11;;;;;;;12.00;5.50;;;;;;;-143.21;62.11;71435.69;5058507;28;20206;-81
2023/08/17 05:34:38;;;;;;;10.05;5.78;;;;;;;-143.21;61.82;71429.75;5064784;28;20217;-77
2023/08/17 05:37:05;;;;;;;10.93;4.97;;;;;;;-143.21;61.54;71419.84;5063830;28;20221;-76
2023/08/17 05:39:33;;;;;;;13.85;5.82;;;;;;;-143.21;60.77;71402.00;5064965;28;20252;-75
2023/08/17 05:41:59;;;;;;;9.55;5.45;;;;;;;-143.21;60.20;71368.28;5063800;28;20209;-76
2023/08/17 05:44:26;;;;;;;9.27;5.00;;;;;;;-143.21;59.51;71344.50;5064782;28;20197;-76
2023/08/17 05:46:53;;;;;;;10.07;5.25;;;;;;;-143.21;59.32;71346.47;5055624;28;20209;-75
2023/08/17 05:49:20;;;;;;;11.80;5.18;;;;;;;-143.21;59.21;71340.53;5068372;28;20560;-76
2023/08/17 05:51:46;;;;;;;11.35;5.00;;;;;;;-143.21;58.92;71342.50;5058126;28;20702;-74
2023/08/17 05:54:13;;;;;;;10.63;5.00;;;;;;;-143.21;59.18;71350.44;5064153;28;20238;-75
2023/08/17 05:56:44;;;;;;;11.20;5.05;;;;;;;-143.21;59.38;71358.38;5068462;28;20200;-76
2023/08/17 05:59:11;;;;;;;10.35;4.75;;;;;;;-143.21;59.50;71360.34;5063471;28;21272;-75
2023/08/17 06:01:38;;;;;;;9.43;4.93;;;;;;;-143.21;59.61;71360.34;5065925;28;20762;-76
2023/08/17 06:04:05;;;;;;;13.38;5.40;;;;;;;-143.21;59.91;71356.38;5063315;28;20210;-76
2023/08/17 06:06:32;;;;;;;9.48;5.22;;;;;;;-143.21;60.10;71352.44;5066860;28;20263;-76
2023/08/17 06:08:59;;;;;;;12.07;5.50;;;;;;;-143.21;61.46;71352.44;5067648;28;20193;-76
2023/08/17 06:11:26;;;;;;;13.98;6.07;;;;;;;-143.21;61.31;71320.69;5057870;28;20205;-80
2023/08/17 06:13:54;;;;;;;10.00;6.03;;;;;;;-143.21;60.76;71283.03;5060634;28;20653;-80
2023/08/17 06:16:21;;;;;;;15.55;5.75;;;;;;;-143.21;60.23;71265.19;5064196;28;20258;-80
2023/08/17 06:18:48;;;;;;;10.23;6.05;;;;;;;-143.21;60.25;71257.25;5063086;28;20220;-79
2023/08/17 06:21:15;;;;;;;10.18;5.72;;;;;;;-143.21;60.26;71265.19;5062211;28;20197;-79
2023/08/17 06:23:41;;;;;;;10.68;6.32;;;;;;;-143.21;60.10;71279.06;5064383;28;20205;-79
2023/08/17 06:26:08;;;;;;;10.70;5.90;;;;;;;-143.21;60.60;71275.09;5067879;28;20275;-80
2023/08/17 06:28:35;;;;;;;12.23;6.22;;;;;;;-143.21;60.73;71273.13;5066880;28;20229;-80
2023/08/17 06:31:03;;;;;;;13.27;7.10;;;;;;;-143.21;60.50;71263.22;5064297;28;20205;-81
2023/08/17 06:33:30;;;;;;;10.35;6.57;;;;;;;-143.21;60.86;71263.22;5060353;28;20617;-82
2023/08/17 06:35:57;;;;;;;16.80;6.78;;;;;;;-143.21;60.86;71259.25;5063979;28;20262;-81
2023/08/17 06:38:24;;;;;;;15.25;6.97;;;;;;;-143.21;61.30;71255.28;5056949;28;20217;-80
2023/08/17 06:40:52;;;;;;;12.85;7.38;;;;;;;-143.21;61.59;71231.50;5065121;28;20209;-81
2023/08/17 06:43:18;;;;;;;9.63;5.40;;;;;;;-143.21;61.92;71199.78;5059032;28;20667;-81
2023/08/17 06:45:46;;;;;;;7.03;4.50;;;;;;;-143.21;59.75;71179.94;5057484;28;20206;-81
2023/08/17 06:48:14;;;;;;;11.30;5.78;;;;;;;-143.21;58.33;71162.09;5054671;28;20248;-82
2023/08/17 06:50:41;;;;;;;13.07;6.03;;;;;;;-143.21;58.22;71142.28;5064185;28;20202;-81
2023/08/17 06:53:08;;;;;;;11.90;6.25;;;;;;;-143.21;57.92;71134.34;5061140;28;20217;-80
2023/08/17 06:55:35;;;;;;;10.57;5.88;;;;;;;-143.21;57.72;71128.41;5060799;28;20298;-81
2023/08/17 06:58:02;;;;;;;14.10;7.03;;;;;;;-143.21;58.33;71124.44;5062490;28;20201;-81
2023/08/17 07:00:29;;;;;;;13.50;6.38;;;;;;;-143.21;57.69;71108.56;5058291;28;20224;-81
2023/08/17 07:02:56;;;;;;;11.90;6.30;;;;;;;-143.21;56.95;71106.59;5064663;28;20209;-82
2023/08/17 07:05:24;;;;;;;7.78;5.90;;;;;;;-143.21;56.60;71102.63;5064002;28;20197;-82
2023/08/17 07:07:51;;;;;;;10.18;6.30;;;;;;;-143.21;56.35;71088.75;5065031;28;20237;-82
2023/08/17 07:10:18;;;;;;;10.18;5.80;;;;;;;-143.21;55.64;71084.78;5067348;28;20200;-81
2023/08/17 07:12:45;;;;;;;9.65;6.18;;;;;;;-143.21;55.98;71078.84;5057348;28;20292;-81
2023/08/17 07:15:15;;;;;;;10.18;6.10;;;;;;;-143.21;55.17;71076.84;5057670;28;20206;-81
2023/08/17 07:17:42;;;;;;;11.25;6.28;;;;;;;-143.21;54.82;71066.94;5061252;28;20256;-81
2023/08/17 07:20:11;;;;;;;7.82;5.93;;;;;;;-143.21;53.94;71066.94;5067658;28;20225;-82
2023/08/17 07:22:39;;;;;;;6.30;5.70;;;;;;;-143.21;53.69;71064.97;5059437;28;20202;-82
2023/08/17 07:25:08;;;;;;;9.35;6.00;;;;;;;-143.21;53.03;71055.06;5067254;28;20202;-81
2023/08/17 07:27:35;;;;;;;14.93;6.18;;;;;;;-143.21;53.88;71043.16;5060966;28;20216;-81
2023/08/17 07:30:02;;;;;;;11.43;6.60;;;;;;;-143.21;53.78;71033.25;5063814;28;20193;-80
2023/08/17 07:32:29;;;;;;;10.88;6.57;;;;;;;-143.21;53.48;71035.22;5062611;28;20194;-81
2023/08/17 07:34:55;;;;;;;7.82;5.28;;;;;;;-143.21;52.05;71025.31;5062071;28;20202;-80
2023/08/17 07:37:22;;;;;;;7.85;5.75;;;;;;;-143.21;52.18;71023.34;5052462;28;20198;-81
2023/08/17 07:39:51;;;;;;;6.95;5.35;;;;;;;-143.21;51.58;71023.34;5056764;28;20253;-82
2023/08/17 07:42:17;;;;;;;12.73;5.07;;;;;;;-143.21;50.73;71023.34;5063563;28;20213;-83
2023/08/17 07:44:44;;;;;;;7.80;5.00;;;;;;;-143.21;50.20;71019.38;5063895;28;20688;-83
2023/08/17 07:47:11;;;;;;;15.07;5.35;;;;;;;-143.21;52.20;71005.50;5061469;28;20700;-81
2023/08/17 07:49:38;;;;;;;10.13;5.53;;;;;;;-143.21;52.26;70997.56;5069431;28;20214;-81
2023/08/17 07:52:05;;;;;;;17.55;5.43;;;;;;;-143.21;51.03;70991.63;5061950;28;20202;-82
2023/08/17 07:54:32;;;;;;;15.88;5.63;;;;;;;-143.21;51.47;70983.69;5062763;28;20236;-82
2023/08/17 07:57:00;;;;;;;8.35;5.00;;;;;;;-143.21;49.44;70973.78;5063579;28;20713;-81
2023/08/17 07:59:27;;;;;;;6.38;4.82;;;;;;;-143.21;48.84;70938.09;5062670;28;20228;-81
2023/08/17 08:01:54;;;;;;;9.75;5.47;;;;;;;-143.21;47.68;70916.28;5062536;28;20210;-82
2023/08/17 08:04:21;;;;;;;8.85;4.95;;;;;;;-143.21;47.33;70906.38;5064543;28;20205;-81
2023/08/17 08:06:47;;;;;;;8.15;4.88;;;;;;;-143.21;48.07;70910.34;5059281;28;20267;-82
2023/08/17 08:09:15;;;;;;;8.65;4.82;;;;;;;-143.21;47.76;70900.41;5061747;28;20213;-81
2023/08/17 08:11:41;;;;;;;6.18;4.97;;;;;;;-143.21;47.35;70890.50;5058257;28;20590;-81
2023/08/17 08:14:09;;;;;;;7.63;4.63;;;;;;;-143.21;47.28;70890.50;5067312;28;20222;-82
2023/08/17 08:16:36;;;;;;;11.35;4.55;;;;;;;-143.21;47.57;70898.44;5062728;28;20208;-81
2023/08/17 08:19:03;;;;;;;8.15;5.05;;;;;;;-143.21;46.85;70894.47;5060787;28;20226;-81
2023/08/17 08:21:30;;;;;;;6.03;4.55;;;;;;;-143.21;47.22;70882.59;5064980;28;20208;-81
2023/08/17 08:23:57;;;;;;;8.63;4.75;;;;;;;-143.21;47.00;70866.72;5061452;28;20209;-81
2023/08/17 08:26:24;;;;;;;11.35;5.57;;;;;;;-143.21;46.55;70850.88;5067652;28;20258;-81
2023/08/17 08:28:51;;;;;;;10.75;4.40;;;;;;;-143.21;46.53;70837.00;5062602;28;20841;-80
2023/08/17 08:31:20;;;;;;;8.43;4.35;;;;;;;-143.21;46.18;70844.91;5063542;28;20202;-81
2023/08/17 08:33:46;;;;;;;7.18;4.10;;;;;;;-143.21;46.32;70854.84;5063981;28;20710;-82
2023/08/17 08:36:13;;;;;;;5.57;4.40;;;;;;;-143.21;46.67;70846.91;5061039;28;20656;-81
2023/08/17 08:38:43;;;;;;;6.53;4.00;;;;;;;-143.21;45.24;70831.03;5060573;28;20688;-80
2023/08/17 08:41:10;;;;;;;8.25;4.15;;;;;;;-143.21;45.92;70829.06;5057365;28;20226;-82
2023/08/17 08:43:37;;;;;;;7.55;4.15;;;;;;;-143.21;46.45;70809.25;5057775;28;20201;-82
2023/08/17 08:46:05;;;;;;;11.63;4.88;;;;;;;-143.21;46.21;70801.31;5066281;28;20220;-82
2023/08/17 08:48:33;;;;;;;5.78;3.97;;;;;;;-143.21;46.29;70783.47;5066649;28;20193;-81
2023/08/17 08:51:01;;;;;;;8.85;4.50;;;;;;;-143.21;44.73;70807.25;5065520;28;20204;-82
2023/08/17 08:53:33;;;;;;;9.55;4.65;;;;;;;-143.21;45.74;70809.25;5056336;28;20229;-81
2023/08/17 08:56:01;;;;;;;6.07;4.35;;;;;;;-143.21;46.14;70805.28;5066405;28;20324;-82
2023/08/17 08:58:30;;;;;;;8.63;4.50;;;;;;;-143.21;45.37;70817.16;5064826;28;20201;-81
2023/08/17 09:00:58;;;;;;;9.90;4.65;;;;;;;-143.21;45.90;70823.13;5061271;28;20658;-84
2023/08/17 09:03:26;;;;;;;7.18;4.53;;;;;;;-143.21;46.92;70793.38;5065296;28;20201;-82
2023/08/17 09:05:56;;;;;;;7.82;4.65;;;;;;;-143.21;46.53;70743.81;5061712;28;20687;-81
2023/08/17 09:08:28;;;;;;;10.52;4.80;;;;;;;-143.21;44.38;70733.91;5067117;28;20280;-83
2023/08/17 09:10:55;;;;;;;19.52;5.22;;;;;;;-143.21;45.87;70751.75;5062943;28;20201;-82
2023/08/17 09:13:22;;;;;;;11.98;4.90;;;;;;;-143.21;44.82;70751.75;5057765;28;20198;-82
2023/08/17 09:15:49;;;;;;;9.95;5.00;;;;;;;-143.21;45.35;70783.47;5062000;28;20766;-83
2023/08/17 09:18:16;;;;;;;7.35;4.72;;;;;;;-143.21;44.55;70783.47;5054270;28;20597;-83
2023/08/17 09:20:45;;;;;;;8.77;4.63;;;;;;;-143.21;46.24;70753.72;5060351;28;20230;-83
2023/08/17 09:23:15;;;;;;;8.85;4.72;;;;;;;-143.21;45.72;70718.06;5065320;28;20202;-82
2023/08/17 09:25:46;;;;;;;7.07;4.63;;;;;;;-143.21;44.79;70725.97;5067332;28;20255;-83
2023/08/17 09:28:14;;;;;;;7.60;4.47;;;;;;;-143.21;45.85;70731.94;5060392;28;20202;-81
2023/08/17 09:30:52;;;;;;;6.93;4.60;;;;;;;-143.21;44.55;70706.16;5063720;28;20617;-80
2023/08/17 09:33:20;;;;;;;5.18;4.20;;;;;;;-143.21;45.65;70704.19;5056114;28;20679;-81
2023/08/17 09:35:47;;;;;;;10.10;4.47;;;;;;;-143.21;45.06;70694.25;5064497;28;20648;-80
2023/08/17 09:38:15;;;;;;;8.35;3.78;;;;;;;-143.21;44.93;70680.38;5056601;28;20213;-80
2023/08/17 09:40:42;;;;;;;8.02;4.13;;;;;;;-143.21;43.73;70628.84;5064846;28;20225;-80
2023/08/17 09:43:09;;;;;;;13.48;3.97;;;;;;;-143.21;43.56;70595.16;5068779;28;20214;-80
2023/08/17 09:45:37;;;;;;;6.60;3.92;;;;;;;-143.21;43.02;70589.22;5066147;28;20205;-80
2023/08/17 09:48:04;;;;;;;9.73;4.20;;;;;;;-143.21;42.77;70591.19;5059270;28;20205;-80
2023/08/17 09:50:32;;;;;;;8.35;4.38;;;;;;;-143.21;43.14;70607.06;5061354;28;20636;-80
2023/08/17 09:52:59;;;;;;;10.30;4.45;;;;;;;-143.21;42.56;70585.25;5063364;28;20198;-80
2023/08/17 09:55:27;;;;;;;5.18;4.10;;;;;;;-143.21;41.02;70587.22;5065121;28;20237;-80
2023/08/17 09:57:54;;;;;;;7.60;4.45;;;;;;;-143.21;41.34;70591.19;5059036;28;20224;-80
2023/08/17 10:00:21;;;;;;;6.63;4.07;;;;;;;-143.21;41.67;70611.00;5065195;28;20686;-81
2023/08/17 10:02:50;;;;;;;4.00;3.60;;;;;;;-143.21;41.57;70620.94;5069609;28;20668;-80
2023/08/17 10:05:19;;;;;;;11.00;4.00;;;;;;;-143.21;42.09;70624.88;5067839;28;20201;-81
2023/08/17 10:07:49;;;;;;;6.45;4.03;;;;;;;-143.21;42.12;70579.31;5059746;28;20213;-79
2023/08/17 10:10:23;;;;;;;5.30;3.50;;;;;;;-143.21;41.14;70571.38;5060434;28;20290;-79
2023/08/17 10:13:03;;;;;;;5.10;3.53;;;;;;;-143.21;40.74;70601.09;5061844;28;20201;-80
2023/08/17 10:15:32;;;;;;;5.00;3.53;;;;;;;-143.21;40.82;70618.94;5061790;28;20581;-79
2023/08/17 10:18:10;;;;;;;7.90;3.30;;;;;;;-143.21;40.83;70607.06;5063400;28;20216;-80
2023/08/17 10:20:42;;;;;;;9.40;3.60;;;;;;;-143.21;40.91;70565.44;5063496;28;20298;-80
2023/08/17 10:23:15;;;;;;;3.90;3.03;;;;;;;-143.21;40.25;70543.63;5058132;28;20210;-80
2023/08/17 10:25:45;;;;;;;7.43;2.92;;;;;;;-143.21;40.08;70539.66;5060759;28;20209;-81
2023/08/17 10:28:17;;;;;;;7.70;3.63;;;;;;;-143.21;39.43;70519.84;5061937;28;20243;-81
2023/08/17 10:30:44;;;;;;;5.88;3.53;;;;;;;-143.21;39.83;70502.00;5059155;28;20721;-80
2023/08/17 10:33:11;;;;;;;5.05;3.22;;;;;;;-143.21;38.55;70436.59;5063071;28;20214;-81
2023/08/17 10:35:39;;;;;;;7.72;3.17;;;;;;;-143.21;37.51;70375.16;5062652;28;20217;-79
2023/08/17 10:38:07;;;;;;;5.28;3.30;;;;;;;-143.21;37.08;70392.97;5061353;28;20209;-81
2023/08/17 10:40:37;;;;;;;10.98;3.92;;;;;;;-143.21;37.29;70406.84;5060395;28;20244;-80
2023/08/17 10:43:04;;;;;;;5.40;3.30;;;;;;;-143.21;38.18;70436.59;5065012;28;21255;-80
2023/08/17 10:45:34;;;;;;;8.75;3.33;;;;;;;-143.21;38.16;70450.47;5056024;28;20213;-80
2023/08/17 10:48:16;;;;;;;7.07;3.03;;;;;;;-143.21;38.29;70450.47;5063496;28;20220;-80
2023/08/17 10:51:00;;;;;;;7.53;3.13;;;;;;;-143.21;38.37;70389.03;5063654;28;20198;-80
2023/08/17 10:53:27;;;;;;;7.80;3.17;;;;;;;-143.21;37.32;70293.88;5063302;28;20331;-80
2023/08/17 10:55:58;;;;;;;5.68;3.30;;;;;;;-143.21;37.13;70230.47;5064813;28;20201;-80
2023/08/17 10:58:25;;;;;;;3.85;3.05;;;;;;;-143.21;35.67;70240.38;5056440;28;20272;-80
2023/08/17 11:00:56;;;;;;;9.25;3.25;;;;;;;-143.21;35.34;70238.38;5054590;28;20225;-80
2023/08/17 11:03:24;;;;;;;5.10;3.03;;;;;;;-143.21;35.71;70188.84;5068798;28;20201;-80
2023/08/17 11:05:53;;;;;;;6.18;3.30;;;;;;;-143.21;34.73;70206.69;5064684;28;20205;-80
2023/08/17 11:08:26;;;;;;;4.07;3.20;;;;;;;-143.21;35.08;70268.13;5054395;28;20206;-81
2023/08/17 11:11:05;;;;;;;8.10;3.85;;;;;;;-143.21;36.53;70204.69;5056786;28;20210;-80
2023/08/17 11:13:33;;;;;;;5.15;3.30;;;;;;;-143.21;35.50;70190.81;5060821;28;20229;-81
2023/08/17 11:16:03;;;;;;;7.00;3.83;;;;;;;-143.21;35.42;70143.25;5059354;28;20202;-80